createdAt,value
2018-05-08T00:01:08.714Z,4.33
2018-05-08T00:03:44.114Z,2.57
2018-05-08T00:06:17.741Z,3.43
2018-05-08T00:08:51.438Z,4.30
2018-05-08T00:11:25.233Z,7.37
2018-05-08T00:13:58.910Z,5.73
2018-05-08T00:16:34.858Z,5.77
2018-05-08T00:19:11.091Z,6.13
2018-05-08T00:21:46.763Z,4.90
2018-05-08T00:24:25.680Z,5.40
2018-05-08T00:27:03.037Z,5.10
2018-05-08T00:29:40.211Z,4.27
2018-05-08T00:32:18.808Z,5.40
2018-05-08T00:34:57.501Z,3.63
2018-05-08T00:37:31.713Z,7.67
2018-05-08T00:40:09.756Z,9.30
2018-05-08T00:42:47.421Z,5.90
2018-05-08T00:45:21.137Z,4.10
2018-05-08T00:47:57.725Z,5.63
2018-05-08T00:50:38.308Z,6.33
2018-05-08T00:53:21.252Z,7.50
2018-05-08T00:55:57.323Z,5.37
2018-05-08T00:58:33.795Z,6.27
2018-05-08T01:01:07.459Z,5.93
2018-05-08T01:03:41.088Z,6.37
2018-05-08T01:06:21.126Z,5.57
2018-05-08T01:08:54.782Z,5.00
2018-05-08T01:11:28.449Z,5.80
2018-05-08T01:14:03.059Z,6.57
2018-05-08T01:16:36.515Z,5.47
2018-05-08T01:19:10.932Z,6.40
2018-05-08T01:21:45.367Z,7.53
2018-05-08T01:24:19.025Z,8.53
2018-05-08T01:26:53.683Z,7.17
2018-05-08T01:29:28.103Z,9.60
2018-05-08T01:32:02.533Z,6.57
2018-05-08T01:34:37.200Z,6.53
2018-05-08T01:37:10.862Z,5.97
2018-05-08T01:39:44.192Z,6.60
2018-05-08T01:42:18.616Z,7.37
2018-05-08T01:44:52.288Z,6.53
2018-05-08T01:47:25.951Z,8.67
2018-05-08T01:50:00.377Z,6.97
2018-05-08T01:52:34.805Z,6.57
2018-05-08T01:55:09.390Z,8.73
2018-05-08T01:57:44.025Z,8.03
2018-05-08T02:00:17.686Z,6.93
2018-05-08T02:02:52.309Z,8.50
2018-05-08T02:05:26.933Z,9.77
2018-05-08T02:08:01.536Z,6.57
2018-05-08T02:10:35.200Z,10.67
2018-05-08T02:13:08.863Z,7.43
2018-05-08T02:15:42.516Z,7.87
2018-05-08T02:18:16.934Z,7.47
2018-05-08T02:20:52.374Z,9.00
2018-05-08T02:23:27.733Z,9.77
2018-05-08T02:26:01.528Z,9.53
2018-05-08T02:28:37.025Z,8.60
2018-05-08T02:31:10.689Z,9.93
2018-05-08T02:33:45.338Z,9.20
2018-05-08T02:36:18.996Z,12.00
2018-05-08T02:38:54.379Z,16.67
2018-05-08T02:41:29.020Z,8.57
2018-05-08T02:44:03.774Z,12.47
2018-05-08T02:46:39.183Z,11.07
2018-05-08T02:49:13.774Z,10.67
2018-05-08T02:51:47.446Z,9.17
2018-05-08T02:54:21.886Z,12.33
2018-05-08T02:56:55.600Z,14.37
2018-05-08T02:59:30.245Z,11.73
2018-05-08T03:02:05.189Z,10.57
2018-05-08T03:04:38.861Z,12.30
2018-05-08T03:07:12.524Z,13.07
2018-05-08T03:09:46.981Z,11.33
2018-05-08T03:12:21.680Z,14.67
2018-05-08T03:14:55.344Z,11.37
2018-05-08T03:17:29.018Z,19.43
2018-05-08T03:20:02.686Z,17.73
2018-05-08T03:22:37.330Z,13.57
2018-05-08T03:25:11.920Z,16.23
2018-05-08T03:27:46.343Z,11.57
2018-05-08T03:30:20.791Z,11.67
2018-05-08T03:32:54.457Z,14.70
2018-05-08T03:35:28.888Z,12.63
2018-05-08T03:38:03.821Z,9.70
2018-05-08T03:40:37.481Z,12.40
2018-05-08T03:43:11.139Z,12.80
2018-05-08T03:45:44.794Z,11.00
2018-05-08T03:48:19.239Z,15.43
2018-05-08T03:50:54.395Z,11.90
2018-05-08T03:53:29.105Z,15.47
2018-05-08T03:56:02.924Z,17.37
2018-05-08T03:58:36.581Z,12.80
2018-05-08T04:01:23.267Z,13.50
2018-05-08T04:04:08.269Z,14.23
2018-05-08T04:09:49.591Z,11.77
2018-05-08T04:12:23.259Z,12.53
2018-05-08T04:14:57.764Z,13.13
2018-05-08T04:17:31.542Z,15.37
2018-05-08T04:20:04.872Z,14.63
2018-05-08T04:22:38.534Z,10.33
2018-05-08T04:25:13.140Z,16.33
2018-05-08T04:27:46.806Z,15.40
2018-05-08T04:30:21.231Z,12.97
2018-05-08T04:32:55.657Z,14.70
2018-05-08T04:35:30.252Z,15.13
2018-05-08T04:38:04.884Z,15.53
2018-05-08T04:40:40.288Z,13.03
2018-05-08T04:43:13.966Z,13.70
2018-05-08T04:45:48.613Z,10.63
2018-05-08T04:48:22.633Z,8.77
2018-05-08T04:50:57.224Z,8.03
2018-05-08T04:53:30.884Z,8.13
2018-05-08T04:56:06.088Z,8.65
2018-05-08T04:58:42.051Z,6.40
2018-05-08T05:01:16.282Z,7.12
2018-05-08T05:03:50.516Z,9.68
2018-05-08T05:06:24.724Z,8.90
2018-05-08T05:08:58.946Z,9.05
2018-05-08T05:11:33.169Z,5.82
2018-05-08T05:14:07.404Z,12.25
2018-05-08T05:16:42.581Z,8.90
2018-05-08T05:19:17.779Z,10.68
2018-05-08T05:21:52.021Z,12.27
2018-05-08T05:24:27.941Z,8.68
2018-05-08T05:27:03.144Z,8.80
2018-05-08T05:29:37.381Z,12.00
2018-05-08T05:32:11.610Z,12.23
2018-05-08T05:34:45.836Z,11.85
2018-05-08T05:37:20.061Z,14.23
2018-05-08T05:39:55.043Z,9.05
2018-05-08T05:42:30.239Z,9.85
2018-05-08T05:45:03.828Z,11.50
2018-05-08T05:47:39.785Z,9.98
2018-05-08T05:50:15.743Z,8.40
2018-05-08T05:52:50.753Z,9.10
2018-05-08T05:55:24.979Z,8.52
2018-05-08T05:57:59.967Z,9.75
2018-05-08T06:00:34.207Z,9.85
2018-05-08T06:03:09.397Z,11.63
2018-05-08T06:05:44.383Z,11.32
2018-05-08T06:08:18.388Z,7.57
2018-05-08T06:10:52.614Z,9.23
2018-05-08T06:13:27.599Z,8.30
2018-05-08T06:16:01.829Z,8.13
2018-05-08T06:18:36.050Z,9.32
2018-05-08T06:21:11.230Z,7.55
2018-05-08T06:23:46.194Z,9.15
2018-05-08T06:26:21.395Z,7.43
2018-05-08T06:28:56.393Z,10.40
2018-05-08T06:31:31.617Z,10.05
2018-05-08T06:34:05.841Z,9.32
2018-05-08T06:36:40.080Z,10.02
2018-05-08T06:39:15.983Z,8.20
2018-05-08T06:41:50.213Z,7.62
2018-05-08T06:44:24.536Z,8.55
2018-05-08T06:46:59.812Z,9.57
2018-05-08T06:49:35.773Z,7.70
2018-05-08T06:52:10.868Z,9.73
2018-05-08T06:54:46.085Z,9.10
2018-05-08T06:57:21.303Z,7.12
2018-05-08T06:59:55.523Z,7.07
2018-05-08T07:02:29.761Z,7.82
2018-05-08T07:05:03.988Z,8.27
2018-05-08T07:07:38.231Z,8.35
2018-05-08T07:10:12.163Z,8.60
2018-05-08T07:12:50.168Z,12.45
2018-05-08T07:15:25.343Z,6.50
2018-05-08T07:18:00.549Z,7.22
2018-05-08T07:20:36.432Z,15.85
2018-05-08T07:23:10.766Z,8.52
2018-05-08T07:25:45.043Z,9.93
2018-05-08T07:28:21.388Z,5.53
2018-05-08T07:30:56.585Z,6.68
2018-05-08T07:33:34.401Z,10.20
2018-05-08T07:36:11.008Z,7.40
2018-05-08T07:38:45.354Z,8.48
2018-05-08T07:41:19.557Z,9.73
2018-05-08T07:43:53.768Z,9.70
2018-05-08T07:46:27.997Z,7.57
2018-05-08T07:49:02.226Z,19.33
2018-05-08T07:51:37.223Z,11.12
2018-05-08T07:54:11.472Z,7.75
2018-05-08T07:56:46.647Z,8.98
2018-05-08T07:59:21.872Z,5.78
2018-05-08T08:01:56.092Z,8.23
2018-05-08T08:04:30.322Z,7.95
2018-05-08T08:07:04.586Z,5.53
2018-05-08T08:09:39.288Z,10.33
2018-05-08T08:12:13.521Z,4.62
2018-05-08T08:14:47.942Z,4.62
2018-05-08T08:17:23.096Z,6.47
2018-05-08T08:19:59.121Z,5.28
2018-05-08T08:22:34.265Z,6.90
2018-05-08T08:25:08.487Z,5.55
2018-05-08T08:27:44.993Z,4.17
2018-05-08T08:30:20.454Z,5.00
2018-05-08T08:32:57.930Z,5.33
2018-05-08T08:35:33.892Z,6.25
2018-05-08T08:38:10.997Z,5.30
2018-05-08T08:40:45.315Z,3.90
2018-05-08T08:43:21.679Z,8.55
2018-05-08T08:45:57.937Z,5.45
2018-05-08T08:48:33.124Z,5.03
2018-05-08T08:51:09.088Z,2.22
2018-05-08T08:53:43.311Z,1.83
2018-05-08T08:56:17.255Z,3.00
2018-05-08T08:58:52.195Z,3.57
2018-05-08T09:01:27.063Z,8.47
2018-05-08T09:04:01.087Z,2.97
2018-05-08T09:06:36.047Z,4.10
2018-05-08T09:09:11.004Z,2.43
2018-05-08T09:11:45.703Z,2.13
2018-05-08T09:14:20.387Z,2.70
2018-05-08T09:16:54.318Z,2.27
2018-05-08T09:19:28.330Z,3.57
2018-05-08T09:22:02.563Z,2.15
2018-05-08T09:24:37.715Z,5.95
2018-05-08T09:27:11.943Z,2.90
2018-05-08T09:29:46.964Z,3.33
2018-05-08T09:32:22.151Z,4.07
2018-05-08T09:34:57.320Z,5.68
2018-05-08T09:37:31.544Z,2.40
2018-05-08T09:40:06.718Z,5.70
2018-05-08T09:42:42.679Z,6.45
2018-05-08T09:45:17.878Z,4.82
2018-05-08T09:47:52.099Z,4.65
2018-05-08T09:50:26.327Z,3.80
2018-05-08T09:53:02.257Z,4.03
2018-05-08T09:55:36.487Z,4.45
2018-05-08T09:58:10.721Z,5.25
2018-05-08T10:00:45.723Z,2.92
2018-05-08T10:03:20.913Z,3.60
2018-05-08T10:05:55.133Z,1.60
2018-05-08T10:08:29.367Z,4.05
2018-05-08T10:11:03.593Z,2.17
2018-05-08T10:13:37.817Z,8.63
2018-05-08T10:16:11.878Z,2.75
2018-05-08T10:18:46.025Z,6.32
2018-05-08T10:21:20.033Z,6.78
2018-05-08T10:23:54.264Z,5.60
2018-05-08T10:26:29.484Z,2.83
2018-05-08T10:29:04.672Z,2.87
2018-05-08T10:31:39.857Z,2.30
2018-05-08T10:34:15.061Z,2.08
2018-05-08T10:36:49.297Z,5.43
2018-05-08T10:39:24.497Z,3.50
2018-05-08T10:41:59.705Z,3.37
2018-05-08T10:44:33.928Z,4.18
2018-05-08T10:47:08.159Z,2.95
2018-05-08T10:49:43.151Z,2.95
2018-05-08T10:52:17.377Z,4.57
2018-05-08T10:54:52.579Z,2.75
2018-05-08T10:57:27.764Z,4.72
2018-05-08T11:00:02.752Z,1.92
2018-05-08T11:02:36.987Z,6.45
2018-05-08T11:05:11.210Z,7.60
2018-05-08T11:07:46.434Z,3.67
2018-05-08T11:10:20.677Z,5.35
2018-05-08T11:12:55.676Z,4.50
2018-05-08T11:15:29.895Z,2.92
2018-05-08T11:18:04.147Z,2.03
2018-05-08T11:20:39.136Z,3.83
2018-05-08T11:23:13.368Z,4.40
2018-05-08T11:25:48.547Z,4.30
2018-05-08T11:28:22.763Z,6.93
2018-05-08T11:30:57.960Z,2.83
2018-05-08T11:33:33.160Z,4.85
2018-05-08T11:36:07.388Z,3.65
2018-05-08T11:38:42.276Z,3.87
2018-05-08T11:41:16.502Z,4.60
2018-05-08T11:43:51.708Z,5.62
2018-05-08T11:46:27.664Z,4.50
2018-05-08T11:49:02.657Z,4.10
2018-05-08T11:51:37.860Z,4.15
2018-05-08T11:54:12.708Z,1.98
2018-05-08T11:56:47.026Z,3.08
2018-05-08T11:59:22.232Z,3.55
2018-05-08T12:01:56.487Z,5.75
2018-05-08T12:04:31.693Z,4.78
2018-05-08T12:07:06.859Z,2.70
2018-05-08T12:09:41.088Z,4.22
2018-05-08T12:12:15.313Z,4.45
2018-05-08T12:14:50.556Z,4.45
2018-05-08T12:17:24.751Z,1.50
2018-05-08T12:19:58.978Z,3.10
2018-05-08T12:22:33.205Z,3.28
2018-05-08T12:25:09.181Z,5.85
2018-05-08T12:27:43.404Z,3.28
2018-05-08T12:30:18.610Z,2.53
2018-05-08T12:32:54.597Z,3.22
2018-05-08T12:35:28.835Z,3.08
2018-05-08T12:38:03.062Z,6.28
2018-05-08T12:40:38.031Z,2.92
2018-05-08T12:43:13.983Z,3.05
2018-05-08T12:45:49.939Z,3.08
2018-05-08T12:48:24.941Z,2.78
2018-05-08T12:51:00.143Z,2.10
2018-05-08T12:53:35.327Z,2.47
2018-05-08T12:56:10.638Z,2.78
2018-05-08T12:58:44.979Z,3.42
2018-05-08T13:01:20.244Z,2.17
2018-05-08T13:03:55.236Z,2.75
2018-05-08T13:06:29.452Z,2.33
2018-05-08T13:09:03.356Z,5.60
2018-05-08T13:11:37.591Z,3.95
2018-05-08T13:14:11.824Z,2.17
2018-05-08T13:16:47.737Z,1.75
2018-05-08T13:19:21.970Z,2.95
2018-05-08T13:21:57.160Z,1.52
2018-05-08T13:24:32.402Z,3.60
2018-05-08T13:27:06.304Z,3.00
2018-05-08T13:29:40.528Z,1.80
2018-05-08T13:32:15.729Z,2.55
2018-05-08T13:34:51.693Z,3.47
2018-05-08T13:37:26.674Z,1.45
2018-05-08T13:40:00.904Z,5.22
2018-05-08T13:42:36.114Z,1.85
2018-05-08T13:45:11.277Z,5.28
2018-05-08T13:47:46.520Z,1.15
2018-05-08T13:50:21.741Z,5.95
2018-05-08T13:52:56.962Z,3.28
2018-05-08T13:55:30.976Z,2.58
2018-05-08T13:58:05.206Z,3.58
2018-05-08T14:00:40.430Z,2.28
2018-05-08T14:03:14.660Z,1.58
2018-05-08T14:05:48.882Z,2.35
2018-05-08T14:08:24.072Z,3.92
2018-05-08T14:10:58.334Z,2.95
2018-05-08T14:13:33.590Z,1.58
2018-05-08T14:16:08.575Z,1.58
2018-05-08T14:18:43.775Z,1.40
2018-05-08T14:21:17.988Z,1.40
2018-05-08T14:23:52.234Z,2.97
2018-05-08T14:26:27.419Z,4.90
2018-05-08T14:29:02.595Z,4.97
2018-05-08T14:31:37.888Z,4.82
2018-05-08T14:34:12.981Z,1.87
2018-05-08T14:36:47.195Z,1.67
2018-05-08T14:39:21.427Z,2.20
2018-05-08T14:41:55.433Z,2.58
2018-05-08T14:44:30.623Z,3.35
2018-05-08T14:47:05.781Z,4.93
2018-05-08T14:49:41.004Z,4.95
2018-05-08T14:52:15.236Z,4.15
2018-05-08T14:54:49.466Z,4.30
2018-05-08T14:57:23.689Z,5.60
2018-05-08T14:59:59.107Z,1.80
2018-05-08T15:02:33.334Z,3.97
2018-05-08T15:05:08.573Z,2.90
2018-05-08T15:07:43.834Z,7.35
2018-05-08T15:10:20.249Z,1.62
2018-05-08T15:12:56.277Z,3.78
2018-05-08T15:15:32.254Z,5.32
2018-05-08T15:18:08.487Z,3.58
2018-05-08T15:20:43.765Z,6.57
2018-05-08T15:23:18.999Z,5.40
2018-05-08T15:25:53.368Z,5.55
2018-05-08T15:28:27.592Z,3.22
2018-05-08T15:31:02.798Z,3.87
2018-05-08T15:33:37.069Z,7.43
2018-05-08T15:36:12.346Z,2.10
2018-05-08T15:38:46.571Z,2.25
2018-05-08T15:41:21.781Z,8.38
2018-05-08T15:43:56.002Z,3.95
2018-05-08T15:46:31.957Z,3.85
2018-05-08T15:49:07.147Z,4.05
2018-05-08T15:51:43.104Z,3.47
2018-05-08T15:54:19.067Z,2.05
2018-05-08T15:56:53.308Z,4.15
2018-05-08T15:59:28.527Z,3.42
2018-05-08T16:02:02.801Z,1.85
2018-05-08T16:04:37.046Z,4.15
2018-05-08T16:07:13.030Z,3.42
2018-05-08T16:09:48.256Z,2.58
2018-05-08T16:12:22.546Z,7.95
2018-05-08T16:14:57.565Z,4.18
2018-05-08T16:17:31.815Z,4.03
2018-05-08T16:20:05.802Z,2.60
2018-05-08T16:22:41.760Z,3.22
2018-05-08T16:25:16.739Z,4.10
2018-05-08T16:27:51.881Z,4.00
2018-05-08T16:30:27.088Z,2.25
2018-05-08T16:33:02.269Z,1.87
2018-05-08T16:35:36.491Z,3.08
2018-05-08T16:38:10.724Z,2.97
2018-05-08T16:40:44.971Z,3.85
2018-05-08T16:43:19.201Z,2.53
2018-05-08T16:45:53.425Z,2.58
2018-05-08T16:48:27.662Z,1.10
2018-05-08T16:51:01.887Z,3.25
2018-05-08T16:53:36.095Z,1.37
2018-05-08T16:56:10.740Z,3.65
2018-05-08T16:58:46.710Z,4.05
2018-05-08T17:01:21.909Z,2.87
2018-05-08T17:03:56.149Z,2.87
2018-05-08T17:06:32.099Z,2.15
2018-05-08T17:09:06.427Z,3.53
2018-05-08T17:11:42.443Z,0.70
2018-05-08T17:14:17.655Z,4.97
2018-05-08T17:16:51.927Z,5.12
2018-05-08T17:19:26.918Z,4.55
2018-05-08T17:22:01.140Z,1.55
2018-05-08T17:24:36.358Z,2.75
2018-05-08T17:27:11.543Z,1.42
2018-05-08T17:29:46.529Z,2.75
2018-05-08T17:32:20.746Z,2.37
2018-05-08T17:34:55.926Z,2.65
2018-05-08T17:37:30.912Z,1.85
2018-05-08T17:40:06.062Z,3.17
2018-05-08T17:42:40.332Z,2.92
2018-05-08T17:45:15.494Z,2.70
2018-05-08T17:47:49.702Z,3.80
2018-05-08T17:50:24.854Z,3.67
2018-05-08T17:52:59.087Z,3.08
2018-05-08T17:55:33.306Z,3.50
2018-05-08T17:58:14.669Z,3.08
2018-05-08T18:00:48.988Z,1.75
2018-05-08T18:03:24.176Z,2.15
2018-05-08T18:05:59.348Z,4.07
2018-05-08T18:08:34.529Z,1.33
2018-05-08T18:11:09.510Z,2.45
2018-05-08T18:13:43.731Z,0.85
2018-05-08T18:16:19.027Z,6.50
2018-05-08T18:18:53.367Z,4.90
2018-05-08T18:21:27.600Z,3.83
2018-05-08T18:24:01.849Z,2.80
2018-05-08T18:26:36.068Z,3.60
2018-05-08T18:29:10.287Z,2.12
2018-05-08T18:31:44.714Z,1.73
2018-05-08T18:34:20.912Z,2.80
2018-05-08T18:36:55.517Z,4.82
2018-05-08T18:39:37.611Z,4.07
2018-05-08T18:42:12.748Z,1.37
2018-05-08T18:44:47.944Z,2.35
2018-05-08T18:47:22.163Z,1.87
2018-05-08T18:49:58.270Z,6.87
2018-05-08T18:52:32.836Z,3.05
2018-05-08T18:55:09.750Z,2.28
2018-05-08T18:57:48.755Z,2.75
2018-05-08T19:00:25.518Z,3.30
2018-05-08T19:03:02.609Z,2.12
2018-05-08T19:05:38.070Z,3.53
2018-05-08T19:08:15.775Z,5.22
2018-05-08T19:13:59.156Z,4.17
2018-05-08T19:16:34.934Z,9.00
2018-05-08T19:19:14.716Z,4.00
2018-05-08T19:21:49.157Z,3.72
2018-05-08T19:24:30.443Z,5.12
2018-05-08T19:27:06.508Z,1.95
2018-05-08T19:29:47.172Z,1.25
2018-05-08T19:32:21.395Z,2.47
2018-05-08T19:35:00.985Z,1.77
2018-05-08T19:37:40.111Z,4.00
2018-05-08T19:40:14.516Z,1.33
2018-05-08T19:42:49.499Z,6.78
2018-05-08T19:45:23.403Z,4.15
2018-05-08T19:47:57.835Z,5.18
2018-05-08T19:50:32.060Z,2.92
2018-05-08T19:53:06.028Z,2.93
2018-05-08T19:55:41.478Z,5.93
2018-05-08T19:58:24.046Z,3.47
2018-05-08T20:00:59.687Z,1.57
2018-05-08T20:03:34.523Z,1.58
2018-05-08T20:09:20.019Z,3.20
2018-05-08T20:12:03.307Z,2.60
2018-05-08T20:14:37.830Z,2.77
2018-05-08T20:20:04.509Z,3.70
2018-05-08T20:25:39.628Z,5.37
2018-05-08T20:28:19.164Z,2.93
2018-05-08T20:30:53.814Z,4.80
2018-05-08T20:33:28.316Z,2.33
2018-05-08T20:39:02.323Z,2.40
2018-05-08T20:41:47.569Z,2.73
2018-05-08T20:44:24.882Z,3.17
2018-05-08T20:46:59.320Z,5.70
2018-05-08T20:49:33.747Z,4.33
2018-05-08T20:52:07.426Z,5.10
2018-05-08T20:54:42.816Z,4.33
2018-05-08T20:57:16.476Z,2.67
2018-05-08T20:59:50.149Z,3.30
2018-05-08T21:02:23.827Z,3.23
2018-05-08T21:04:58.429Z,2.67
2018-05-08T21:07:32.114Z,4.40
2018-05-08T21:10:06.777Z,4.03
2018-05-08T21:12:41.429Z,3.43
2018-05-08T21:15:15.089Z,4.10
2018-05-08T21:17:48.852Z,2.53
2018-05-08T21:20:23.393Z,4.27
2018-05-08T21:22:58.097Z,6.20
2018-05-08T21:25:36.202Z,4.47
2018-05-08T21:28:16.144Z,5.60
2018-05-08T21:30:55.530Z,5.93
2018-05-08T21:33:29.185Z,5.07
2018-05-08T21:36:09.028Z,3.73
2018-05-08T21:38:43.456Z,3.67
2018-05-08T21:41:22.235Z,4.27
2018-05-08T21:43:55.945Z,5.00
2018-05-08T21:46:32.012Z,6.37
2018-05-08T21:49:06.662Z,5.37
2018-05-08T21:51:41.090Z,6.77
2018-05-08T21:54:14.769Z,5.93
2018-05-08T21:56:48.208Z,5.87
2018-05-08T21:59:21.876Z,4.53
2018-05-08T22:01:56.308Z,6.60
2018-05-08T22:04:29.969Z,2.40
2018-05-08T22:07:03.631Z,5.90
2018-05-08T22:09:38.254Z,3.23
2018-05-08T22:12:11.920Z,5.50
2018-05-08T22:14:47.344Z,5.57
2018-05-08T22:17:21.004Z,4.03
2018-05-08T22:19:54.667Z,3.57
2018-05-08T22:22:30.132Z,11.00
2018-05-08T22:25:04.766Z,5.17
2018-05-08T22:27:38.456Z,3.83
2018-05-08T22:30:12.133Z,3.87
2018-05-08T22:32:47.542Z,5.90
2018-05-08T22:35:21.210Z,5.73
2018-05-08T22:37:54.887Z,6.83
2018-05-08T22:40:30.235Z,7.90
2018-05-08T22:43:03.935Z,7.43
2018-05-08T22:45:37.595Z,7.07
2018-05-08T22:48:12.193Z,5.07
2018-05-08T22:50:45.849Z,5.80
2018-05-08T22:53:20.299Z,5.67
2018-05-08T22:55:53.960Z,3.97
2018-05-08T22:58:28.387Z,4.27
2018-05-08T23:01:04.141Z,5.00
2018-05-08T23:03:38.573Z,5.97
2018-05-08T23:06:13.218Z,6.03
2018-05-08T23:08:46.935Z,3.00
2018-05-08T23:11:20.755Z,6.47
2018-05-08T23:13:54.188Z,7.13
2018-05-08T23:16:29.578Z,5.43
2018-05-08T23:19:04.229Z,2.90
2018-05-08T23:21:38.887Z,6.70
2018-05-08T23:24:12.547Z,6.80
2018-05-08T23:26:46.215Z,7.33
2018-05-08T23:29:20.803Z,4.63
2018-05-08T23:31:55.239Z,6.57
2018-05-08T23:34:28.903Z,4.00
2018-05-08T23:37:02.561Z,4.77
2018-05-08T23:39:37.211Z,4.80
2018-05-08T23:42:11.069Z,5.37
2018-05-08T23:44:44.727Z,4.03
2018-05-08T23:47:18.432Z,3.37
2018-05-08T23:49:52.102Z,5.97
2018-05-08T23:52:26.692Z,5.73
2018-05-08T23:55:01.265Z,5.13
2018-05-08T23:57:35.905Z,7.10
